Seattle, Washington
Traffic Map
Current Weather Conditions
Seattle, Washington
Broken Clouds
Broken Clouds
83°
Feels Like: 83°
Wind Chill: 83° Ceiling: 25000
Heat Index: 83° Visibility: 10mi
Dew Point: 49° Wind: 5mph
Humidity: 31% Direction: 190° (S)
Pressure: 29.94in Gusts: 0mph
Raw Report DataKBFI 070253Z 19004KT 10SM BKN250 28/09 A2994 RMK AO2 SLP139 T02830094 56005
Traffic Incident Summary
Active as of:
Severity:
Category:
InformationThere was an issue retrieving the traffic information for this location. Please try a different location or try again shortly.
Advertisements
Track Severe Weather on mobile